Time;durP1;ratioP1;P1;durP2;ratioP2;P2;SDS_P1;SDS_P2;PMS_P1;PMS_P2;Temp;Humidity;BMP_temperature;BMP_pressure;BME280_temperature;BME280_humidity;BME280_pressure;Samples;Min_cycle;Max_cycle;Signal;HPM_P1;HPM_P2
2022/01/30 00:00:02;;;;;;;2.70;0.90;;;17.10;62.10;;;;;;5142276;27;45258;-87
2022/01/30 00:02:30;;;;;;;2.50;1.02;;;17.10;62.20;;;;;;5139979;27;46643;-86
2022/01/30 00:04:57;;;;;;;2.45;0.60;;;17.10;61.90;;;;;;5140629;27;45436;-86
2022/01/30 00:07:24;;;;;;;2.28;0.68;;;17.10;61.90;;;;;;5148452;27;45645;-86
2022/01/30 00:09:51;;;;;;;4.10;0.90;;;17.10;61.90;;;;;;5144248;27;47214;-90
2022/01/30 00:12:26;;;;;;;3.42;0.88;;;17.10;63.20;;;;;;5141641;27;46459;-85
2022/01/30 00:14:56;;;;;;;2.38;0.90;;;17.10;63.10;;;;;;5139906;27;45429;-88
2022/01/30 00:17:29;;;;;;;2.60;0.80;;;17.10;63.80;;;;;;5141013;27;45234;-88
2022/01/30 00:20:00;;;;;;;2.65;0.93;;;17.10;63.80;;;;;;5146043;27;45368;-89
2022/01/30 00:22:40;;;;;;;2.08;0.90;;;17.10;64.00;;;;;;5140375;27;47638;-85
2022/01/30 00:25:14;;;;;;;4.80;1.45;;;17.20;63.90;;;;;;5140020;27;46109;-86
2022/01/30 00:27:54;;;;;;;5.72;2.60;;;17.10;64.20;;;;;;5139920;27;45300;-86
2022/01/30 00:30:22;;;;;;;8.55;3.42;;;17.10;63.70;;;;;;5141729;27;45484;-86
2022/01/30 00:32:50;;;;;;;8.48;2.92;;;17.10;63.60;;;;;;5139395;27;47740;-87
2022/01/30 00:35:17;;;;;;;13.65;3.50;;;18.10;64.40;;;;;;5137822;27;45598;-87
2022/01/30 00:37:48;;;;;;;6.35;2.90;;;17.00;63.70;;;;;;5143099;27;45419;-88
2022/01/30 00:40:15;;;;;;;6.65;3.17;;;17.00;63.60;;;;;;5146981;27;45299;-89
2022/01/30 00:42:42;;;;;;;7.60;3.13;;;17.00;63.20;;;;;;5143354;27;48600;-89
2022/01/30 00:45:09;;;;;;;8.70;3.17;;;17.00;63.10;;;;;;5142299;27;45218;-87
2022/01/30 00:47:38;;;;;;;6.00;3.05;;;17.00;62.90;;;;;;5139024;27;45526;-87
2022/01/30 00:50:06;;;;;;;6.60;2.95;;;17.00;62.40;;;;;;5139666;27;45405;-87
2022/01/30 00:52:33;;;;;;;6.55;2.83;;;17.00;63.40;;;;;;5142439;27;48022;-86
2022/01/30 00:55:00;;;;;;;8.88;2.88;;;17.00;62.90;;;;;;5143544;27;45833;-86
2022/01/30 00:57:27;;;;;;;9.07;3.15;;;17.00;62.80;;;;;;5147762;27;45504;-86
2022/01/30 00:59:54;;;;;;;9.10;3.20;;;17.00;63.30;;;;;;5152157;27;45383;-86
2022/01/30 01:02:22;;;;;;;7.93;2.70;;;17.10;63.70;;;;;;5131583;27;45202;-86
2022/01/30 01:04:50;;;;;;;6.80;2.90;;;17.10;63.70;;;;;;5147688;27;45386;-86
2022/01/30 01:07:20;;;;;;;4.88;2.63;;;17.10;63.00;;;;;;5151650;27;45368;-89
2022/01/30 01:09:56;;;;;;;5.75;2.50;;;17.10;63.70;;;;;;5152854;27;45646;-88
2022/01/30 01:21:01;;;;;;;7.07;2.47;;;17.10;62.90;;;;;;5152434;27;45301;-88
2022/01/30 01:23:30;;;;;;;5.90;2.20;;;17.10;62.20;;;;;;5152053;27;47832;-88
2022/01/30 01:25:58;;;;;;;6.55;2.47;;;17.10;62.10;;;;;;5152649;27;45238;-89
2022/01/30 01:28:26;;;;;;;4.85;2.00;;;17.10;61.90;;;;;;5152521;27;45354;-88
2022/01/30 01:30:53;;;;;;;6.35;2.10;;;17.10;61.10;;;;;;5152536;27;45554;-88
2022/01/30 01:33:21;;;;;;;5.57;2.10;;;17.10;62.20;;;;;;5151071;27;45386;-86
2022/01/30 01:35:50;;;;;;;5.43;2.10;;;17.10;61.70;;;;;;5152325;27;45167;-86
2022/01/30 01:38:17;;;;;;;4.57;1.75;;;17.10;61.60;;;;;;5150387;27;45850;-86
2022/01/30 01:40:51;;;;;;;4.45;2.03;;;17.10;60.60;;;;;;5152284;27;45380;-87
2022/01/30 01:43:18;;;;;;;3.28;1.88;;;17.10;61.40;;;;;;5150826;27;48173;-88
2022/01/30 01:45:47;;;;;;;5.72;2.05;;;17.10;61.50;;;;;;5151553;27;45419;-88
2022/01/30 01:48:14;;;;;;;5.78;1.83;;;17.10;62.60;;;;;;5152154;27;45208;-88
2022/01/30 01:50:45;;;;;;;5.30;1.83;;;17.10;62.70;;;;;;5150739;27;45268;-88
2022/01/30 01:53:15;;;;;;;3.60;1.52;;;17.10;62.90;;;;;;5151600;27;48104;-88
2022/01/30 01:55:44;;;;;;;3.08;1.45;;;17.10;62.70;;;;;;5151655;27;45296;-88
2022/01/30 01:58:11;;;;;;;6.35;1.63;;;17.10;62.60;;;;;;5151624;27;45498;-86
2022/01/30 02:00:39;;;;;;;5.25;1.95;;;17.10;62.70;;;;;;5152178;27;45250;-86
2022/01/30 02:03:06;;;;;;;4.85;1.55;;;17.10;62.20;;;;;;5151890;27;46400;-86
2022/01/30 02:05:35;;;;;;;2.00;1.20;;;17.10;61.50;;;;;;5152364;27;45215;-86
2022/01/30 02:10:52;;;;;;;4.97;1.40;;;17.10;60.90;;;;;;5150930;27;45340;-86
2022/01/30 02:24:55;;;;;;;2.85;1.40;;;17.00;60.60;;;;;;5151905;27;45794;-87
2022/01/30 02:27:24;;;;;;;4.03;1.25;;;17.10;60.20;;;;;;5151685;27;45211;-87
2022/01/30 02:29:52;;;;;;;3.85;1.30;;;17.00;60.00;;;;;;5151573;27;45154;-86
2022/01/30 02:32:19;;;;;;;4.13;1.30;;;17.00;60.20;;;;;;5151723;27;45254;-86
2022/01/30 02:34:46;;;;;;;4.43;1.10;;;17.10;61.20;;;;;;5151452;27;48195;-86
2022/01/30 02:37:14;;;;;;;2.55;1.10;;;17.10;61.10;;;;;;5151289;27;45579;-86
2022/01/30 02:39:41;;;;;;;3.85;1.33;;;17.10;61.50;;;;;;5151705;27;45146;-86
2022/01/30 02:42:14;;;;;;;4.65;1.42;;;17.10;61.10;;;;;;5151256;27;45366;-85
2022/01/30 02:44:47;;;;;;;3.50;1.20;;;17.10;61.50;;;;;;5130407;27;48223;-86
2022/01/30 02:47:23;;;;;;;4.60;1.42;;;17.10;61.50;;;;;;5145926;27;45602;-86
2022/01/30 02:50:10;;;;;;;2.95;1.20;;;17.10;61.40;;;;;;5151212;27;45210;-86
2022/01/30 02:52:39;;;;;;;2.35;1.02;;;17.10;61.00;;;;;;5143258;27;45439;-87
2022/01/30 02:55:08;;;;;;;3.22;1.20;;;17.10;60.30;;;;;;5147092;27;48485;-87
2022/01/30 02:57:36;;;;;;;2.90;1.25;;;17.10;60.30;;;;;;5132708;27;45317;-87
2022/01/30 03:00:05;;;;;;;2.28;1.00;;;17.10;60.50;;;;;;5130320;27;45210;-87
2022/01/30 03:02:32;;;;;;;2.60;1.20;;;17.10;60.00;;;;;;5139117;27;45245;-87
2022/01/30 03:04:59;;;;;;;4.40;1.15;;;17.00;60.00;;;;;;5151148;27;47656;-87
2022/01/30 03:07:26;;;;;;;3.55;1.33;;;17.00;59.90;;;;;;5150845;27;45548;-87
2022/01/30 03:09:53;;;;;;;2.28;0.90;;;17.00;59.60;;;;;;5165617;27;44738;-91
2022/01/30 03:12:20;;;;;;;2.42;1.33;;;17.00;58.90;;;;;;5151338;27;45172;-91
2022/01/30 03:14:48;;;;;;;3.92;1.23;;;17.00;60.10;;;;;;5146907;27;47234;-90
2022/01/30 03:17:15;;;;;;;2.47;0.93;;;17.00;60.30;;;;;;5148723;27;45310;-90
2022/01/30 03:19:42;;;;;;;5.13;1.00;;;16.90;60.50;;;;;;5148830;27;45242;-90
2022/01/30 03:22:09;;;;;;;2.15;0.93;;;17.00;61.10;;;;;;5149268;27;45169;-89
2022/01/30 03:24:37;;;;;;;1.98;0.85;;;17.00;61.10;;;;;;5150087;27;47656;-89
2022/01/30 03:27:05;;;;;;;3.15;1.10;;;17.00;60.80;;;;;;5150286;27;45370;-88
2022/01/30 03:29:34;;;;;;;5.10;1.38;;;16.90;60.80;;;;;;5150303;27;45224;-88
2022/01/30 03:32:02;;;;;;;4.20;1.02;;;17.00;60.80;;;;;;5149502;27;45104;-88
2022/01/30 03:34:30;;;;;;;2.38;0.88;;;17.00;60.80;;;;;;5149576;27;46749;-88
2022/01/30 03:36:57;;;;;;;2.03;0.88;;;17.00;60.90;;;;;;5149709;27;45810;-88
2022/01/30 03:39:24;;;;;;;1.95;0.80;;;17.00;60.10;;;;;;5149795;27;45258;-89
2022/01/30 03:41:51;;;;;;;4.07;1.02;;;17.00;60.00;;;;;;5146778;27;45155;-86
2022/01/30 03:44:18;;;;;;;3.72;0.85;;;17.00;60.30;;;;;;5130264;27;48148;-89
2022/01/30 03:46:45;;;;;;;1.75;0.85;;;16.90;59.80;;;;;;5134945;27;46140;-87
2022/01/30 03:49:13;;;;;;;2.13;0.90;;;16.90;59.70;;;;;;5150104;27;45153;-87
2022/01/30 03:51:40;;;;;;;2.20;0.90;;;16.90;60.00;;;;;;5148995;27;45206;-88
2022/01/30 03:54:07;;;;;;;2.25;0.98;;;16.90;59.50;;;;;;5137554;27;48573;-89
2022/01/30 03:56:34;;;;;;;2.42;0.88;;;16.90;59.90;;;;;;5146696;27;45921;-88
2022/01/30 03:59:01;;;;;;;3.53;1.27;;;16.90;59.20;;;;;;5148626;27;45282;-88
2022/01/30 04:01:28;;;;;;;3.40;1.05;;;16.90;59.20;;;;;;5128431;27;45464;-87
2022/01/30 04:03:55;;;;;;;3.08;0.98;;;16.90;58.90;;;;;;5147304;27;48113;-88
2022/01/30 04:06:23;;;;;;;3.75;1.17;;;16.90;59.30;;;;;;5148852;27;46351;-88
2022/01/30 04:08:51;;;;;;;2.28;0.80;;;16.90;59.90;;;;;;5150221;27;45257;-87
2022/01/30 04:11:18;;;;;;;2.13;0.98;;;17.00;60.00;;;;;;5149927;27;45259;-87
2022/01/30 04:13:46;;;;;;;4.00;0.95;;;17.00;60.40;;;;;;5149662;27;48717;-88
2022/01/30 04:16:14;;;;;;;2.88;0.90;;;17.00;59.70;;;;;;5149434;27;45290;-86
2022/01/30 04:18:41;;;;;;;2.58;0.80;;;17.00;60.10;;;;;;5149885;27;45217;-86
2022/01/30 04:21:08;;;;;;;3.33;0.63;;;17.00;60.10;;;;;;5149775;27;45448;-87
2022/01/30 04:23:36;;;;;;;2.45;0.90;;;17.00;60.00;;;;;;5148960;27;47839;-87
2022/01/30 04:26:03;;;;;;;2.58;0.88;;;17.00;59.20;;;;;;5149186;27;45199;-88
2022/01/30 04:28:30;;;;;;;2.95;0.95;;;17.00;59.30;;;;;;5149630;27;45214;-87
2022/01/30 04:30:58;;;;;;;1.70;0.80;;;17.00;57.50;;;;;;5151161;27;45354;-86
2022/01/30 04:33:25;;;;;;;2.70;1.10;;;17.00;57.60;;;;;;5152647;27;48745;-88
2022/01/30 04:35:53;;;;;;;2.17;1.00;;;17.00;57.70;;;;;;5153434;27;45116;-86
2022/01/30 04:38:27;;;;;;;3.42;0.82;;;17.00;56.80;;;;;;5140861;27;45261;-85
2022/01/30 04:52:18;;;;;;;1.50;0.80;;;16.90;57.00;;;;;;5139839;27;45253;-87
2022/01/30 04:55:31;;;;;;;2.40;0.82;;;16.90;57.30;;;;;;5151745;27;48029;-87
2022/01/30 04:57:57;;;;;;;1.85;0.93;;;17.00;58.50;;;;;;5151747;27;45208;-87
2022/01/30 05:00:33;;;;;;;2.95;0.77;;;17.00;58.60;;;;;;5151445;27;45325;-87
2022/01/30 05:03:04;;;;;;;3.83;0.93;;;17.10;59.00;;;;;;5152164;27;45399;-87
2022/01/30 05:08:25;;;;;;;4.18;0.98;;;17.00;59.00;;;;;;5114854;27;45286;-87
2022/01/30 05:10:53;;;;;;;2.78;0.80;;;17.00;58.80;;;;;;5152005;27;45189;-87
2022/01/30 05:13:25;;;;;;;2.83;0.80;;;17.00;57.70;;;;;;5152909;27;45457;-87
2022/01/30 05:15:52;;;;;;;5.47;0.93;;;17.00;57.90;;;;;;5329688;22;47578;-82
2022/01/30 05:18:20;;;;;;;3.00;1.05;;;17.00;59.30;;;;;;5118849;27;45301;-82
2022/01/30 05:20:48;;;;;;;1.92;0.88;;;17.30;57.30;;;;;;5119346;27;45235;-83
2022/01/30 05:23:16;;;;;;;2.53;0.93;;;17.10;58.70;;;;;;5120385;27;45170;-83
2022/01/30 05:25:43;;;;;;;1.85;0.75;;;17.00;57.90;;;;;;5115792;27;48125;-82
2022/01/30 05:28:11;;;;;;;3.58;0.77;;;17.00;56.80;;;;;;5114275;27;45210;-82
2022/01/30 05:30:40;;;;;;;3.50;0.82;;;17.00;58.70;;;;;;5114183;27;45275;-82
2022/01/30 05:33:07;;;;;;;2.05;0.95;;;16.90;56.60;;;;;;5118489;27;45479;-83
2022/01/30 05:35:35;;;;;;;3.33;1.33;;;16.90;55.90;;;;;;5120566;27;46284;-82
2022/01/30 05:38:04;;;;;;;2.67;0.70;;;16.90;56.00;;;;;;5119417;27;45168;-83
2022/01/30 05:40:32;;;;;;;2.22;0.82;;;16.90;55.50;;;;;;5119358;27;45232;-83
2022/01/30 05:42:59;;;;;;;2.17;1.02;;;17.00;55.70;;;;;;5098961;27;45310;-82
2022/01/30 05:45:29;;;;;;;3.25;0.77;;;17.00;55.50;;;;;;5112095;27;48519;-83
2022/01/30 05:48:01;;;;;;;2.55;1.00;;;17.00;56.00;;;;;;5119603;27;46146;-83
2022/01/30 05:50:29;;;;;;;2.38;0.80;;;17.00;57.30;;;;;;5119144;27;45175;-82
2022/01/30 05:52:56;;;;;;;2.80;0.90;;;17.10;56.60;;;;;;5119056;27;45441;-82
2022/01/30 05:55:23;;;;;;;2.50;0.90;;;17.10;57.20;;;;;;5116981;27;48213;-83
2022/01/30 05:57:50;;;;;;;2.45;0.65;;;17.10;57.40;;;;;;5117201;27;45408;-83
2022/01/30 06:00:18;;;;;;;4.50;0.90;;;17.10;56.30;;;;;;5117196;27;45343;-83
2022/01/30 06:02:46;;;;;;;4.95;1.17;;;17.10;55.00;;;;;;5114865;27;45186;-82
2022/01/30 06:05:21;;;;;;;2.58;0.90;;;17.00;55.00;;;;;;5116438;27;46897;-82
2022/01/30 06:07:51;;;;;;;1.90;0.82;;;17.00;55.10;;;;;;5115593;27;45266;-82
2022/01/30 06:10:19;;;;;;;2.85;0.80;;;17.00;55.60;;;;;;5117173;27;45189;-82
2022/01/30 06:12:46;;;;;;;1.63;0.63;;;17.00;55.60;;;;;;5115645;27;45172;-82
2022/01/30 06:15:14;;;;;;;2.13;0.70;;;17.00;55.20;;;;;;5114539;27;46496;-82
2022/01/30 06:17:42;;;;;;;1.98;0.85;;;17.00;55.20;;;;;;5115483;27;45295;-82
2022/01/30 06:20:09;;;;;;;3.28;0.77;;;17.00;55.30;;;;;;5111932;27;45312;-81
2022/01/30 06:22:38;;;;;;;1.48;0.60;;;17.00;54.80;;;;;;5114129;27;45166;-82
2022/01/30 06:25:06;;;;;;;2.00;0.82;;;16.90;55.10;;;;;;5114750;27;48143;-82
2022/01/30 06:27:32;;;;;;;1.02;0.63;;;17.00;55.10;;;;;;5115795;27;45224;-82
2022/01/30 06:30:00;;;;;;;3.53;0.73;;;17.00;55.90;;;;;;5115505;27;45136;-85
2022/01/30 06:32:27;;;;;;;2.60;0.77;;;17.00;56.10;;;;;;5122085;27;45195;-86
2022/01/30 06:34:55;;;;;;;2.22;0.73;;;17.00;59.60;;;;;;5123563;27;47172;-85
2022/01/30 06:37:23;;;;;;;4.57;1.23;;;17.40;61.00;;;;;;5124048;27;45225;-85
2022/01/30 06:39:53;;;;;;;4.22;0.98;;;16.80;60.10;;;;;;5123844;27;45182;-84
2022/01/30 06:42:21;;;;;;;4.97;1.00;;;17.20;59.80;;;;;;5124435;27;45074;-84
2022/01/30 06:44:50;;;;;;;1.70;0.70;;;17.10;59.60;;;;;;5104788;27;45386;-84
2022/01/30 06:47:18;;;;;;;3.85;1.08;;;16.80;59.60;;;;;;5122174;27;45383;-84
2022/01/30 06:49:45;;;;;;;3.55;1.00;;;17.20;59.20;;;;;;5122792;27;44811;-84
2022/01/30 06:52:12;;;;;;;1.75;0.70;;;18.60;61.70;;;;;;5121269;27;45330;-83
2022/01/30 06:54:39;;;;;;;4.25;1.08;;;18.70;60.30;;;;;;5116027;27;48588;-83
2022/01/30 06:57:08;;;;;;;2.95;0.80;;;18.60;60.50;;;;;;5120122;27;45409;-83
2022/01/30 06:59:35;;;;;;;2.67;0.90;;;17.40;58.30;;;;;;5117902;27;45265;-83
2022/01/30 07:02:02;;;;;;;1.20;0.70;;;16.90;56.50;;;;;;5118384;27;45452;-83
2022/01/30 07:04:30;;;;;;;1.30;0.75;;;16.90;56.70;;;;;;5119409;27;45485;-84
2022/01/30 07:06:57;;;;;;;2.60;0.90;;;16.70;55.90;;;;;;5111712;27;46439;-84
2022/01/30 07:09:25;;;;;;;2.83;1.00;;;16.60;57.30;;;;;;5118655;27;45353;-84
2022/01/30 07:11:52;;;;;;;2.28;1.02;;;16.90;58.80;;;;;;5122544;27;45310;-85
2022/01/30 07:14:21;;;;;;;2.20;0.60;;;16.30;59.30;;;;;;5123254;27;47111;-86
2022/01/30 07:16:49;;;;;;;2.47;0.82;;;17.20;60.50;;;;;;5122134;27;45327;-85
2022/01/30 07:19:17;;;;;;;2.50;0.70;;;18.20;60.80;;;;;;5122441;27;45329;-85
2022/01/30 07:21:45;;;;;;;1.25;0.52;;;17.20;60.50;;;;;;5122521;27;45135;-84
2022/01/30 07:24:12;;;;;;;2.47;0.73;;;18.40;61.60;;;;;;5123775;27;46563;-84
2022/01/30 07:26:40;;;;;;;2.92;0.80;;;17.10;60.50;;;;;;5120862;27;45497;-84
2022/01/30 07:29:08;;;;;;;2.80;0.70;;;17.10;60.10;;;;;;5121945;27;45267;-84
2022/01/30 07:31:37;;;;;;;1.75;0.88;;;17.20;61.10;;;;;;5120678;27;45285;-83
2022/01/30 07:34:05;;;;;;;1.48;0.70;;;16.90;58.80;;;;;;5119889;27;47594;-83
2022/01/30 07:36:36;;;;;;;2.30;0.82;;;17.70;59.00;;;;;;5120217;27;45348;-83
2022/01/30 07:39:05;;;;;;;1.75;0.52;;;17.00;56.90;;;;;;5119311;27;45325;-83
2022/01/30 07:41:32;;;;;;;2.10;0.82;;;17.00;54.70;;;;;;5116150;27;45320;-83
2022/01/30 07:44:01;;;;;;;2.05;0.70;;;16.90;55.60;;;;;;5104274;27;47399;-83
2022/01/30 07:46:29;;;;;;;2.65;0.98;;;16.10;56.70;;;;;;5108452;27;45147;-82
2022/01/30 07:48:58;;;;;;;2.60;0.95;;;16.90;57.00;;;;;;5116534;27;45234;-82
2022/01/30 07:51:25;;;;;;;2.92;0.90;;;17.00;60.60;;;;;;5118726;27;45081;-83
2022/01/30 07:53:52;;;;;;;3.13;1.05;;;17.00;58.50;;;;;;5101350;28;45661;-84
2022/01/30 07:56:20;;;;;;;1.75;0.77;;;15.30;57.30;;;;;;5100549;28;45455;-86
2022/01/30 07:58:48;;;;;;;2.10;0.90;;;16.90;56.80;;;;;;5114808;27;45345;-84
2022/01/30 08:01:15;;;;;;;4.72;0.98;;;17.20;59.90;;;;;;5122152;27;45342;-83
2022/01/30 08:03:42;;;;;;;2.03;0.80;;;15.90;58.40;;;;;;5121320;27;47648;-83
2022/01/30 08:06:11;;;;;;;1.92;0.68;;;18.30;61.00;;;;;;5117097;27;45240;-82
2022/01/30 08:08:38;;;;;;;2.80;0.80;;;17.00;59.40;;;;;;5122076;27;45258;-83
2022/01/30 08:11:06;;;;;;;1.80;0.80;;;17.30;60.00;;;;;;5118881;27;45263;-83
2022/01/30 08:13:34;;;;;;;3.05;0.70;;;18.60;61.50;;;;;;5123095;27;47858;-84
2022/01/30 08:16:02;;;;;;;5.10;1.13;;;17.30;61.10;;;;;;5102874;27;45089;-82
2022/01/30 08:18:30;;;;;;;1.88;1.00;;;17.10;60.10;;;;;;5120372;27;45384;-83
2022/01/30 08:20:57;;;;;;;6.35;0.80;;;17.20;59.30;;;;;;5121982;27;45464;-83
2022/01/30 08:23:28;;;;;;;1.88;0.73;;;17.10;58.50;;;;;;5119355;27;48183;-83
2022/01/30 08:25:56;;;;;;;3.78;0.77;;;19.00;60.20;;;;;;5119674;27;45290;-87
2022/01/30 08:28:23;;;;;;;1.40;0.57;;;17.70;57.50;;;;;;5118901;27;45154;-86
2022/01/30 08:30:53;;;;;;;2.58;0.80;;;17.10;58.00;;;;;;5121669;27;45221;-85
2022/01/30 08:33:21;;;;;;;1.05;0.50;;;17.10;54.80;;;;;;5122053;27;45822;-84
2022/01/30 08:35:49;;;;;;;3.47;0.90;;;15.70;55.10;;;;;;5121122;27;45549;-85
2022/01/30 08:38:18;;;;;;;2.72;0.80;;;16.80;56.60;;;;;;5120772;27;45297;-84
2022/01/30 08:43:30;;;;;;;3.05;0.85;;;17.10;56.60;;;;;;5118592;27;45584;-83
2022/01/30 08:45:59;;;;;;;2.13;0.70;;;16.90;57.40;;;;;;5121245;27;46172;-84
2022/01/30 08:48:30;;;;;;;1.65;0.55;;;15.40;55.60;;;;;;5113386;27;45238;-85
2022/01/30 08:50:58;;;;;;;3.53;0.95;;;16.80;58.70;;;;;;5121493;27;44828;-84
2022/01/30 08:53:27;;;;;;;2.90;1.00;;;15.90;58.00;;;;;;5120940;27;47850;-84
2022/01/30 08:55:55;;;;;;;3.50;0.77;;;16.00;54.90;;;;;;5118163;27;45564;-83
2022/01/30 08:58:23;;;;;;;2.42;0.70;;;17.10;59.60;;;;;;5117146;27;45444;-83
2022/01/30 09:00:50;;;;;;;4.72;0.90;;;17.00;58.80;;;;;;5116888;27;45186;-82
2022/01/30 09:03:17;;;;;;;2.25;0.68;;;16.80;59.60;;;;;;5116759;27;47446;-84
2022/01/30 09:05:45;;;;;;;2.67;0.60;;;19.00;60.30;;;;;;5117498;27;45347;-82
2022/01/30 09:08:12;;;;;;;2.20;0.65;;;16.90;56.80;;;;;;5114546;27;45323;-82
2022/01/30 09:10:41;;;;;;;3.35;0.90;;;17.80;59.50;;;;;;5116080;27;45381;-87
2022/01/30 09:13:10;;;;;;;3.75;0.65;;;17.10;57.60;;;;;;5118863;27;45713;-86
2022/01/30 09:15:39;;;;;;;2.33;0.70;;;17.20;57.60;;;;;;5122209;27;45096;-85
2022/01/30 09:18:08;;;;;;;3.42;1.20;;;14.90;55.90;;;;;;5122294;27;45104;-84
2022/01/30 09:20:36;;;;;;;2.63;0.90;;;16.80;57.60;;;;;;5125073;27;45493;-83
2022/01/30 09:23:03;;;;;;;3.42;1.17;;;17.00;58.50;;;;;;5119728;27;47523;-83
2022/01/30 09:25:30;;;;;;;2.05;0.65;;;16.90;57.90;;;;;;5112533;27;46667;-81
2022/01/30 09:27:59;;;;;;;1.60;0.60;;;16.70;57.20;;;;;;5112064;27;46119;-82
2022/01/30 09:30:28;;;;;;;2.00;0.80;;;16.80;54.40;;;;;;5115106;27;45380;-82
2022/01/30 09:32:55;;;;;;;2.47;0.70;;;16.70;54.80;;;;;;5115550;27;46661;-82
2022/01/30 09:35:22;;;;;;;2.67;0.93;;;16.80;55.50;;;;;;5114483;27;45360;-81
2022/01/30 09:37:49;;;;;;;2.15;0.70;;;16.80;57.10;;;;;;5106930;27;45344;-82
2022/01/30 09:40:17;;;;;;;2.38;0.73;;;16.80;55.90;;;;;;5119059;27;45113;-81
2022/01/30 09:42:46;;;;;;;3.22;0.85;;;16.80;55.30;;;;;;5126022;27;48939;-81
2022/01/30 09:45:14;;;;;;;2.58;0.75;;;16.90;56.60;;;;;;5113626;27;45300;-82
2022/01/30 09:47:43;;;;;;;4.50;0.70;;;16.90;55.50;;;;;;5103502;27;45120;-81
2022/01/30 09:50:10;;;;;;;1.50;0.52;;;16.90;55.20;;;;;;5122547;27;45454;-81
2022/01/30 09:52:38;;;;;;;1.98;0.80;;;16.90;55.80;;;;;;5114156;27;48087;-81
2022/01/30 09:55:08;;;;;;;2.03;0.68;;;16.90;54.90;;;;;;5109851;27;45608;-81
2022/01/30 09:57:36;;;;;;;1.13;0.60;;;16.90;55.20;;;;;;5113816;27;45081;-86
2022/01/30 10:00:04;;;;;;;4.25;0.88;;;16.60;55.60;;;;;;5107523;27;45478;-81
2022/01/30 10:02:31;;;;;;;12.15;1.42;;;17.10;59.20;;;;;;5085841;27;46986;-82
2022/01/30 10:05:02;;;;;;;2.70;0.80;;;17.70;61.30;;;;;;5117605;27;45223;-83
2022/01/30 10:07:40;;;;;;;4.45;1.08;;;17.30;57.00;;;;;;5120359;27;45483;-83
2022/01/30 10:10:09;;;;;;;4.97;1.17;;;17.10;57.00;;;;;;5114573;27;45113;-82
2022/01/30 10:12:37;;;;;;;9.30;1.10;;;16.90;57.70;;;;;;5124116;27;47825;-82
2022/01/30 10:15:07;;;;;;;4.45;0.95;;;17.10;60.00;;;;;;5131755;27;45266;-82
2022/01/30 10:17:36;;;;;;;3.28;0.93;;;18.20;60.00;;;;;;5122076;27;45261;-82
2022/01/30 10:20:24;;;;;;;5.47;1.20;;;18.80;61.00;;;;;;5117005;27;45326;-84
2022/01/30 10:22:53;;;;;;;9.52;1.00;;;15.60;55.20;;;;;;5124125;27;48513;-81
2022/01/30 10:25:23;;;;;;;4.20;1.20;;;16.90;58.70;;;;;;5124457;27;45223;-80
2022/01/30 10:28:04;;;;;;;4.72;0.90;;;17.30;58.20;;;;;;5117029;27;45145;-82
2022/01/30 10:30:41;;;;;;;5.82;1.30;;;16.80;60.40;;;;;;5103718;27;45203;-82
2022/01/30 10:33:09;;;;;;;4.45;0.93;;;17.00;57.40;;;;;;5105925;27;46233;-82
2022/01/30 10:35:50;;;;;;;3.88;0.80;;;16.90;59.30;;;;;;5111563;27;45190;-83
2022/01/30 10:38:23;;;;;;;5.70;1.17;;;15.40;55.40;;;;;;5118957;27;45296;-82
2022/01/30 10:40:59;;;;;;;13.70;6.35;;;17.10;57.70;;;;;;5118767;27;45125;-83
2022/01/30 10:43:49;;;;;;;12.27;6.05;;;17.20;56.70;;;;;;5121560;27;45826;-82
2022/01/30 10:46:23;;;;;;;10.70;4.75;;;17.20;55.70;;;;;;5111517;27;45263;-88
2022/01/30 10:48:58;;;;;;;16.88;5.90;;;15.30;59.10;;;;;;5120591;27;45309;-88
2022/01/30 10:51:29;;;;;;;13.13;6.93;;;15.10;59.10;;;;;;5119441;27;45278;-88
2022/01/30 10:53:58;;;;;;;14.02;6.97;;;17.50;58.20;;;;;;5119549;27;47325;-88
2022/01/30 10:56:27;;;;;;;12.45;6.68;;;17.10;57.20;;;;;;5118238;27;45263;-87
2022/01/30 10:59:09;;;;;;;15.50;7.13;;;17.00;56.50;;;;;;5119210;27;45530;-87
2022/01/30 11:01:40;;;;;;;17.63;8.10;;;17.00;56.00;;;;;;5120974;27;45184;-86
2022/01/30 11:04:21;;;;;;;21.30;8.82;;;18.50;58.30;;;;;;5129104;27;47601;-88
2022/01/30 11:06:52;;;;;;;14.30;7.40;;;18.10;56.50;;;;;;5127915;27;45076;-89
2022/01/30 11:09:24;;;;;;;16.23;8.05;;;16.30;57.90;;;;;;5127524;27;45128;-87
2022/01/30 11:11:58;;;;;;;16.00;7.60;;;17.20;58.80;;;;;;5125943;27;45184;-87
2022/01/30 11:14:39;;;;;;;15.15;7.88;;;17.10;57.10;;;;;;5128205;27;46218;-87
2022/01/30 11:17:18;;;;;;;14.82;7.88;;;17.00;55.20;;;;;;5127962;27;45758;-86
2022/01/30 11:19:48;;;;;;;18.98;7.65;;;16.80;58.40;;;;;;5128043;27;44661;-89
2022/01/30 11:22:23;;;;;;;13.43;7.15;;;17.60;57.60;;;;;;5125985;27;45314;-86
2022/01/30 11:25:05;;;;;;;16.08;6.68;;;17.10;57.70;;;;;;5129258;27;45580;-87
2022/01/30 11:27:35;;;;;;;12.20;6.63;;;17.20;58.00;;;;;;5128635;27;44789;-87
2022/01/30 11:30:15;;;;;;;13.77;6.82;;;17.00;55.20;;;;;;5106592;27;45334;-89
2022/01/30 11:32:43;;;;;;;16.80;7.20;;;17.00;54.00;;;;;;5126187;27;45331;-88
2022/01/30 11:35:11;;;;;;;12.52;6.65;;;17.10;57.00;;;;;;5136267;27;47894;-84
2022/01/30 11:37:41;;;;;;;12.65;6.75;;;17.40;56.60;;;;;;5126343;27;44749;-87
2022/01/30 11:40:14;;;;;;;14.88;6.47;;;17.40;54.70;;;;;;5133534;27;45355;-89
2022/01/30 11:42:45;;;;;;;15.68;6.88;;;17.70;55.10;;;;;;5126939;27;44832;-90
2022/01/30 11:45:28;;;;;;;13.07;5.60;;;16.90;54.90;;;;;;5111776;27;47596;-89
2022/01/30 11:48:01;;;;;;;12.10;6.07;;;17.60;54.50;;;;;;5120588;27;45236;-84
2022/01/30 11:50:38;;;;;;;12.13;6.03;;;17.40;54.10;;;;;;5127862;27;44750;-87
2022/01/30 11:53:10;;;;;;;12.52;5.60;;;17.30;55.80;;;;;;5127488;27;45253;-88
2022/01/30 11:55:48;;;;;;;9.48;5.13;;;15.30;51.40;;;;;;5128136;27;46952;-86
2022/01/30 11:58:59;;;;;;;9.45;5.13;;;16.90;51.90;;;;;;5129766;27;45467;-87
2022/01/30 12:01:40;;;;;;;8.80;4.75;;;17.40;52.20;;;;;;5105765;27;45291;-86
2022/01/30 12:04:18;;;;;;;11.25;5.18;;;17.40;52.50;;;;;;5127379;27;44858;-86
2022/01/30 12:07:01;;;;;;;11.10;4.70;;;17.40;52.40;;;;;;5127987;27;47348;-86
2022/01/30 12:12:15;;;;;;;9.57;4.70;;;17.30;53.50;;;;;;5122541;27;45218;-86
2022/01/30 12:14:51;;;;;;;11.88;5.00;;;17.30;53.70;;;;;;5127943;27;45546;-85
2022/01/30 12:17:58;;;;;;;10.57;4.95;;;17.30;52.00;;;;;;5127038;27;45866;-87
2022/01/30 12:20:27;;;;;;;8.88;4.10;;;17.50;51.80;;;;;;5127676;27;45297;-86
2022/01/30 12:23:01;;;;;;;8.93;4.47;;;17.40;54.30;;;;;;5128146;27;45497;-85
2022/01/30 12:26:05;;;;;;;10.85;4.43;;;17.50;52.60;;;;;;5111228;27;45515;-86
2022/01/30 12:28:48;;;;;;;6.18;3.72;;;17.20;51.50;;;;;;5111036;27;45653;-85
2022/01/30 12:31:30;;;;;;;9.25;4.15;;;17.60;54.90;;;;;;5128387;27;45594;-85
2022/01/30 12:34:10;;;;;;;10.15;4.53;;;19.30;55.50;;;;;;5128902;27;44791;-85
2022/01/30 12:36:54;;;;;;;9.35;4.10;;;17.60;52.90;;;;;;5127959;27;44875;-86
2022/01/30 12:39:32;;;;;;;9.02;3.92;;;17.40;53.70;;;;;;5127891;27;46722;-86
2022/01/30 12:42:15;;;;;;;7.93;3.88;;;17.20;53.50;;;;;;5125636;27;45085;-89
2022/01/30 12:44:44;;;;;;;10.52;4.10;;;17.30;52.50;;;;;;5126248;27;45370;-87
2022/01/30 12:47:24;;;;;;;10.18;4.35;;;17.30;53.40;;;;;;5125975;27;45481;-87
2022/01/30 12:50:04;;;;;;;10.40;4.15;;;17.30;54.00;;;;;;5126313;27;45128;-87
2022/01/30 12:52:36;;;;;;;9.45;3.60;;;16.90;52.00;;;;;;5128317;27;45087;-88
2022/01/30 12:55:12;;;;;;;9.15;4.25;;;17.00;54.70;;;;;;5127679;27;45085;-88
2022/01/30 12:57:45;;;;;;;8.68;3.88;;;17.60;53.90;;;;;;5109115;27;44825;-88
2022/01/30 13:00:18;;;;;;;6.75;3.28;;;17.30;51.60;;;;;;5126574;27;45819;-89
2022/01/30 13:02:56;;;;;;;8.30;3.67;;;17.00;53.30;;;;;;5118224;27;45310;-89
2022/01/30 13:05:25;;;;;;;7.20;3.22;;;17.30;55.40;;;;;;5119851;27;45150;-88
2022/01/30 13:07:54;;;;;;;9.65;3.58;;;17.00;54.50;;;;;;5117266;27;45270;-89
2022/01/30 13:10:22;;;;;;;6.90;3.35;;;17.80;56.00;;;;;;5129822;27;47378;-88
2022/01/30 13:12:52;;;;;;;7.18;3.45;;;17.40;53.30;;;;;;5130362;27;45274;-87
2022/01/30 13:15:22;;;;;;;6.35;3.10;;;17.20;51.90;;;;;;5119732;27;45277;-87
2022/01/30 13:17:50;;;;;;;7.10;3.15;;;17.30;53.20;;;;;;5127792;27;44909;-83
2022/01/30 13:20:23;;;;;;;9.63;3.50;;;17.20;53.10;;;;;;5120100;27;47438;-87
2022/01/30 13:22:54;;;;;;;7.20;2.92;;;17.20;53.80;;;;;;5128657;27;45110;-90
2022/01/30 13:25:22;;;;;;;5.95;3.03;;;19.00;55.60;;;;;;5126031;27;45385;-89
2022/01/30 13:27:52;;;;;;;7.20;3.22;;;17.30;53.20;;;;;;5117305;27;45227;-87
2022/01/30 13:30:22;;;;;;;7.90;3.22;;;18.90;52.70;;;;;;5120219;27;45914;-86
2022/01/30 13:32:52;;;;;;;8.48;2.72;;;17.40;52.40;;;;;;5121113;27;45213;-87
2022/01/30 13:35:21;;;;;;;5.97;2.47;;;17.30;52.60;;;;;;5122358;27;45325;-88
2022/01/30 13:37:50;;;;;;;7.35;3.05;;;17.30;52.50;;;;;;5121159;27;45199;-87
2022/01/30 13:40:21;;;;;;;7.38;2.88;;;17.70;52.70;;;;;;5120785;27;47840;-88
2022/01/30 13:42:53;;;;;;;6.57;2.72;;;17.10;52.50;;;;;;5120245;27;45340;-88